createdAt,value
2023-05-04T00:02:01.541Z,5.82
2023-05-04T00:05:08.633Z,5.74
2023-05-04T00:08:15.167Z,5.70
2023-05-04T00:11:20.954Z,5.67
2023-05-04T00:14:30.099Z,5.59
2023-05-04T00:17:35.786Z,5.60
2023-05-04T00:20:42.241Z,5.61
2023-05-04T00:23:48.010Z,5.60
2023-05-04T00:26:54.790Z,5.59
2023-05-04T00:30:03.280Z,5.56
2023-05-04T00:33:09.927Z,5.50
2023-05-04T00:36:16.946Z,5.46
2023-05-04T00:39:23.456Z,5.37
2023-05-04T00:42:29.021Z,5.33
2023-05-04T00:45:38.715Z,5.31
2023-05-04T00:48:46.443Z,5.27
2023-05-04T00:51:54.587Z,5.21
2023-05-04T00:55:01.250Z,5.21
2023-05-04T00:58:09.285Z,5.19
2023-05-04T01:01:17.575Z,5.19
2023-05-04T01:04:24.149Z,5.18
2023-05-04T01:07:41.718Z,5.19
2023-05-04T01:10:59.693Z,5.20
2023-05-04T01:14:05.661Z,5.21
2023-05-04T01:17:15.639Z,5.19
2023-05-04T01:20:22.397Z,5.19
2023-05-04T01:23:31.097Z,5.15
2023-05-04T01:26:46.549Z,5.11
2023-05-04T01:30:03.809Z,5.12
2023-05-04T01:33:12.116Z,4.58
2023-05-04T01:36:18.875Z,5.03
2023-05-04T01:39:28.025Z,5.00
2023-05-04T01:42:33.516Z,4.91
2023-05-04T01:45:40.175Z,4.94
2023-05-04T01:48:45.696Z,4.90
2023-05-04T01:51:52.341Z,4.88
2023-05-04T01:55:01.074Z,4.86
2023-05-04T01:58:07.594Z,4.81
2023-05-04T02:01:13.132Z,4.79
2023-05-04T02:04:19.870Z,4.76
2023-05-04T02:07:25.589Z,4.73
2023-05-04T02:10:35.193Z,4.69
2023-05-04T02:13:40.767Z,4.65
2023-05-04T02:16:47.192Z,4.57
2023-05-04T02:19:52.708Z,4.51
2023-05-04T02:22:59.062Z,4.46
2023-05-04T02:26:07.411Z,4.41
2023-05-04T02:29:13.785Z,4.29
2023-05-04T02:32:19.244Z,4.36
2023-05-04T02:35:25.916Z,4.34
2023-05-04T02:38:31.957Z,4.28
2023-05-04T02:41:41.068Z,4.18
2023-05-04T02:44:46.582Z,4.15
2023-05-04T02:47:53.001Z,4.15
2023-05-04T02:50:58.574Z,4.08
2023-05-04T02:54:04.988Z,4.00
2023-05-04T02:57:13.542Z,4.02
2023-05-04T03:00:20.912Z,3.97
2023-05-04T03:03:26.520Z,3.95
2023-05-04T03:06:32.996Z,3.93
2023-05-04T03:09:38.572Z,3.91
2023-05-04T03:12:48.388Z,3.92
2023-05-04T03:15:53.959Z,3.93
2023-05-04T03:19:00.691Z,3.98
2023-05-04T03:22:06.501Z,4.00
2023-05-04T03:25:13.456Z,4.01
2023-05-04T03:28:22.198Z,3.96
2023-05-04T03:31:29.336Z,3.94
2023-05-04T03:34:35.068Z,3.95
2023-05-04T03:37:44.120Z,3.92
2023-05-04T03:40:49.844Z,4.03
2023-05-04T03:43:59.133Z,4.03
2023-05-04T03:47:04.709Z,4.05
2023-05-04T03:50:13.551Z,4.05
2023-05-04T03:53:21.044Z,4.04
2023-05-04T03:56:27.490Z,4.05
2023-05-04T03:59:36.081Z,4.10
2023-05-04T04:02:45.760Z,4.12
2023-05-04T04:05:56.769Z,4.17
2023-05-04T04:09:05.681Z,4.10
2023-05-04T04:12:11.706Z,4.22
2023-05-04T04:15:20.888Z,4.33
2023-05-04T04:18:27.670Z,4.41
2023-05-04T04:21:34.095Z,4.46
2023-05-04T04:24:39.640Z,4.54
2023-05-04T04:27:45.951Z,4.64
2023-05-04T04:30:54.271Z,4.67
2023-05-04T04:34:01.015Z,4.80
2023-05-04T04:37:06.524Z,4.93
2023-05-04T04:40:14.304Z,5.04
2023-05-04T04:43:19.774Z,5.10
2023-05-04T04:46:28.926Z,5.23
2023-05-04T04:49:35.273Z,5.33
2023-05-04T04:52:41.958Z,5.40
2023-05-04T04:55:48.957Z,5.39
2023-05-04T04:58:55.228Z,5.70
2023-05-04T05:02:04.323Z,5.81
2023-05-04T05:05:13.139Z,5.91
2023-05-04T05:08:18.880Z,5.98
2023-05-04T05:11:26.182Z,6.07
2023-05-04T05:14:31.982Z,6.15
2023-05-04T05:17:41.035Z,6.27
2023-05-04T05:20:46.592Z,6.40
2023-05-04T05:23:53.052Z,6.50
2023-05-04T05:26:58.555Z,6.64
2023-05-04T05:30:06.988Z,6.70
2023-05-04T05:33:15.754Z,6.84
2023-05-04T05:36:22.599Z,6.97
2023-05-04T05:39:29.394Z,7.02
2023-05-04T05:42:36.207Z,7.19
2023-05-04T05:45:41.934Z,7.37
2023-05-04T05:48:51.333Z,7.53
2023-05-04T05:51:56.874Z,7.64
2023-05-04T05:55:03.239Z,7.75
2023-05-04T05:58:11.399Z,7.84
2023-05-04T06:01:17.763Z,7.93
2023-05-04T06:04:26.073Z,7.80
2023-05-04T06:07:32.703Z,8.09
2023-05-04T06:10:38.600Z,8.14
2023-05-04T06:13:45.223Z,8.31
2023-05-04T06:16:50.897Z,8.45
2023-05-04T06:20:00.248Z,8.65
2023-05-04T06:23:06.192Z,7.62
2023-05-04T06:26:12.873Z,8.97
2023-05-04T06:29:18.541Z,9.13
2023-05-04T06:32:25.092Z,9.20
2023-05-04T06:35:35.054Z,9.25
2023-05-04T06:38:41.481Z,9.25
2023-05-04T06:41:47.333Z,9.39
2023-05-04T06:44:56.377Z,9.45
2023-05-04T06:48:01.963Z,9.61
2023-05-04T06:51:11.344Z,9.71
2023-05-04T06:54:16.892Z,9.67
2023-05-04T06:57:23.237Z,9.66
2023-05-04T07:00:29.340Z,9.70
2023-05-04T07:03:36.108Z,9.77
2023-05-04T07:06:45.760Z,9.80
2023-05-04T07:09:52.176Z,9.87
2023-05-04T07:12:58.209Z,10.02
2023-05-04T07:16:04.799Z,10.04
2023-05-04T07:19:10.710Z,9.97
2023-05-04T07:22:21.190Z,10.08
2023-05-04T07:25:27.779Z,10.20
2023-05-04T07:28:35.942Z,10.25
2023-05-04T07:31:41.771Z,10.17
2023-05-04T07:34:48.590Z,10.18
2023-05-04T07:37:56.864Z,10.22
2023-05-04T07:41:03.454Z,10.24
2023-05-04T07:44:11.413Z,10.30
2023-05-04T07:47:17.867Z,10.26
2023-05-04T07:50:23.657Z,10.32
2023-05-04T07:53:33.033Z,10.43
2023-05-04T07:56:38.836Z,10.58
2023-05-04T07:59:45.161Z,10.57
2023-05-04T08:02:51.141Z,9.69
2023-05-04T08:05:57.785Z,10.87
2023-05-04T08:09:06.532Z,10.77
2023-05-04T08:12:13.217Z,10.94
2023-05-04T08:15:18.792Z,11.05
2023-05-04T08:18:25.211Z,11.12
2023-05-04T08:21:31.530Z,11.17
2023-05-04T08:24:40.856Z,11.16
2023-05-04T08:27:46.732Z,11.13
2023-05-04T08:30:53.149Z,11.14
2023-05-04T08:33:58.658Z,11.14
2023-05-04T08:37:05.075Z,11.19
2023-05-04T08:40:19.449Z,11.28
2023-05-04T08:43:26.424Z,11.37
2023-05-04T08:46:36.593Z,11.47
2023-05-04T08:49:43.021Z,11.60
2023-05-04T08:52:50.009Z,11.60
2023-05-04T08:56:04.795Z,11.57
2023-05-04T08:59:21.736Z,11.51
2023-05-04T09:02:29.620Z,11.50
2023-05-04T09:05:35.893Z,11.39
2023-05-04T09:08:42.827Z,11.40
2023-05-04T09:11:51.184Z,11.47
2023-05-04T09:14:57.716Z,11.55
2023-05-04T09:18:07.340Z,11.60
2023-05-04T09:21:15.713Z,11.66
2023-05-04T09:24:30.021Z,11.75
2023-05-04T09:27:40.782Z,11.79
2023-05-04T09:30:47.118Z,11.84
2023-05-04T09:33:53.842Z,11.90
2023-05-04T09:37:03.216Z,11.99
2023-05-04T09:40:11.716Z,12.04
2023-05-04T09:43:20.125Z,12.05
2023-05-04T09:46:26.869Z,12.01
2023-05-04T09:49:37.282Z,11.97
2023-05-04T09:52:46.816Z,11.88
2023-05-04T09:56:12.145Z,12.09
2023-05-04T09:59:24.028Z,12.18
2023-05-04T10:02:30.305Z,12.27
2023-05-04T10:05:37.046Z,12.28
2023-05-04T10:08:44.241Z,12.28
2023-05-04T10:11:52.227Z,12.21
2023-05-04T10:15:01.602Z,12.23
2023-05-04T10:18:28.449Z,12.15
2023-05-04T10:21:52.162Z,12.07
2023-05-04T10:25:47.526Z,11.99
2023-05-04T10:29:15.316Z,11.98
2023-05-04T10:32:26.250Z,11.97
2023-05-04T10:35:32.591Z,12.10
2023-05-04T10:38:41.307Z,12.06
2023-05-04T10:42:09.300Z,12.06
2023-05-04T10:45:16.074Z,12.11
2023-05-04T10:48:24.499Z,12.07
2023-05-04T10:51:42.381Z,12.07
2023-05-04T10:55:04.329Z,12.12
2023-05-04T10:58:11.850Z,12.17
2023-05-04T11:01:17.625Z,12.32
2023-05-04T11:04:27.723Z,12.47
2023-05-04T11:07:39.437Z,12.59
2023-05-04T11:10:46.810Z,12.70
2023-05-04T11:13:53.497Z,12.64
2023-05-04T11:17:26.583Z,12.85
2023-05-04T11:20:36.450Z,12.84
2023-05-04T11:23:43.990Z,12.81
2023-05-04T11:26:51.233Z,12.78
2023-05-04T11:30:02.633Z,12.80
2023-05-04T11:33:16.036Z,12.78
2023-05-04T11:36:27.211Z,12.83
2023-05-04T11:39:35.570Z,12.83
2023-05-04T11:42:43.234Z,12.80
2023-05-04T11:45:54.404Z,12.85
2023-05-04T11:49:02.058Z,12.93
2023-05-04T11:52:14.818Z,13.05
2023-05-04T11:55:34.229Z,13.15
2023-05-04T11:58:41.466Z,13.21
2023-05-04T12:01:48.195Z,13.15
2023-05-04T12:04:54.171Z,13.24
2023-05-04T12:08:04.080Z,13.35
2023-05-04T12:11:22.381Z,13.43
2023-05-04T12:14:28.800Z,13.49
2023-05-04T12:17:43.935Z,13.58
2023-05-04T12:20:50.584Z,13.65
2023-05-04T12:23:59.855Z,13.71
2023-05-04T12:27:06.643Z,13.71
2023-05-04T12:30:14.002Z,13.69
2023-05-04T12:33:20.467Z,13.77
2023-05-04T12:36:25.988Z,13.66
2023-05-04T12:39:35.517Z,13.68
2023-05-04T12:42:42.619Z,13.65
2023-05-04T12:45:49.173Z,13.68
2023-05-04T12:48:54.659Z,13.71
2023-05-04T12:52:07.009Z,13.84
2023-05-04T12:55:15.468Z,13.91
2023-05-04T12:58:22.307Z,14.02
2023-05-04T13:01:28.151Z,13.98
2023-05-04T13:04:34.614Z,14.01
2023-05-04T13:07:40.146Z,14.03
2023-05-04T13:10:49.490Z,14.04
2023-05-04T13:13:56.102Z,14.01
2023-05-04T13:17:03.004Z,14.03
2023-05-04T13:20:10.268Z,14.12
2023-05-04T13:23:17.271Z,14.22
2023-05-04T13:26:25.560Z,14.33
2023-05-04T13:29:31.972Z,14.34
2023-05-04T13:32:37.604Z,14.34
2023-05-04T13:35:45.041Z,13.91
2023-05-04T13:38:50.636Z,14.44
2023-05-04T13:41:59.987Z,14.56
2023-05-04T13:45:05.930Z,14.48
2023-05-04T13:48:12.896Z,14.43
2023-05-04T13:51:18.530Z,14.42
2023-05-04T13:54:26.176Z,14.52
2023-05-04T13:57:34.500Z,14.69
2023-05-04T14:00:40.989Z,14.83
2023-05-04T14:03:46.974Z,14.96
2023-05-04T14:06:54.260Z,15.06
2023-05-04T14:10:00.005Z,15.13
2023-05-04T14:13:09.374Z,15.24
2023-05-04T14:16:15.153Z,15.34
2023-05-04T14:19:21.607Z,15.45
2023-05-04T14:22:27.111Z,15.53
2023-05-04T14:25:33.586Z,15.53
2023-05-04T14:28:41.946Z,15.27
2023-05-04T14:31:48.419Z,15.10
2023-05-04T14:34:54.361Z,14.90
2023-05-04T14:38:00.812Z,14.85
2023-05-04T14:41:08.667Z,14.86
2023-05-04T14:44:18.159Z,14.91
2023-05-04T14:47:23.742Z,14.93
2023-05-04T14:50:30.300Z,14.95
2023-05-04T14:53:37.270Z,14.93
2023-05-04T14:56:48.028Z,14.90
2023-05-04T14:59:56.306Z,14.84
2023-05-04T15:03:02.715Z,14.86
2023-05-04T15:06:10.698Z,15.00
2023-05-04T15:09:17.025Z,15.15
2023-05-04T15:12:22.663Z,15.25
2023-05-04T15:15:31.962Z,15.29
2023-05-04T15:18:37.433Z,15.41
2023-05-04T15:21:43.786Z,15.60
2023-05-04T15:24:49.539Z,15.92
2023-05-04T15:27:56.271Z,16.44
2023-05-04T15:31:07.516Z,16.98
2023-05-04T15:34:16.187Z,17.62
2023-05-04T15:37:25.949Z,18.21
2023-05-04T15:40:32.552Z,18.67
2023-05-04T15:43:38.815Z,19.02
2023-05-04T15:46:47.976Z,19.39
2023-05-04T15:49:53.450Z,19.86
2023-05-04T15:53:00.034Z,20.29
2023-05-04T15:56:06.324Z,20.66
2023-05-04T15:59:13.381Z,20.86
2023-05-04T16:02:22.564Z,20.75
2023-05-04T16:05:29.157Z,20.49
2023-05-04T16:08:34.688Z,20.31
2023-05-04T16:11:41.131Z,20.38
2023-05-04T16:14:46.907Z,20.54
2023-05-04T16:17:56.350Z,20.66
2023-05-04T16:21:02.030Z,20.78
2023-05-04T16:24:10.389Z,20.86
2023-05-04T16:27:16.612Z,20.79
2023-05-04T16:30:26.421Z,20.70
2023-05-04T16:33:35.046Z,20.76
2023-05-04T16:36:41.436Z,20.65
2023-05-04T16:39:47.155Z,20.63
2023-05-04T16:42:53.967Z,20.72
2023-05-04T16:45:59.755Z,20.71
2023-05-04T16:49:10.499Z,20.59
2023-05-04T16:52:16.877Z,20.38
2023-05-04T16:55:23.925Z,20.07
2023-05-04T16:58:30.936Z,19.76
2023-05-04T17:01:38.464Z,19.39
2023-05-04T17:04:47.042Z,19.09
2023-05-04T17:07:54.363Z,18.74
2023-05-04T17:11:02.101Z,18.39
2023-05-04T17:14:08.627Z,18.07
2023-05-04T17:17:14.348Z,17.80
2023-05-04T17:20:28.839Z,17.52
2023-05-04T17:23:35.432Z,17.21
2023-05-04T17:26:42.313Z,16.95
2023-05-04T17:29:48.191Z,16.73
2023-05-04T17:32:57.436Z,16.53
2023-05-04T17:36:07.971Z,16.34
2023-05-04T17:39:14.786Z,16.18
2023-05-04T17:42:20.588Z,15.98
2023-05-04T17:45:28.276Z,15.81
2023-05-04T17:48:36.618Z,15.33
2023-05-04T17:51:46.289Z,15.47
2023-05-04T17:54:52.061Z,15.32
2023-05-04T17:57:58.572Z,15.17
2023-05-04T18:01:04.585Z,15.01
2023-05-04T18:04:11.586Z,14.88
2023-05-04T18:07:20.431Z,14.68
2023-05-04T18:10:27.469Z,14.57
2023-05-04T18:13:33.299Z,14.38
2023-05-04T18:16:40.197Z,14.17
2023-05-04T18:19:46.120Z,14.02
2023-05-04T18:22:56.080Z,13.87
2023-05-04T18:26:01.950Z,13.74
2023-05-04T18:29:18.297Z,13.56
2023-05-04T18:32:25.231Z,13.41
2023-05-04T18:35:33.824Z,13.32
2023-05-04T18:38:42.816Z,13.23
2023-05-04T18:41:49.845Z,13.14
2023-05-04T18:44:58.749Z,13.04
2023-05-04T18:48:05.717Z,12.97
2023-05-04T18:51:14.969Z,12.92
2023-05-04T18:54:25.648Z,12.82
2023-05-04T18:57:32.462Z,12.78
2023-05-04T19:00:40.763Z,12.72
2023-05-04T19:03:47.336Z,12.62
2023-05-04T19:06:57.237Z,12.51
2023-05-04T19:10:09.324Z,12.40
2023-05-04T19:13:17.131Z,12.33
2023-05-04T19:16:25.129Z,12.23
2023-05-04T19:19:34.051Z,12.13
2023-05-04T19:22:41.666Z,12.05
2023-05-04T19:25:51.805Z,11.97
2023-05-04T19:28:58.093Z,11.90
2023-05-04T19:32:15.620Z,11.82
2023-05-04T19:35:31.077Z,11.77
2023-05-04T19:38:38.159Z,11.71
2023-05-04T19:41:47.817Z,11.68
2023-05-04T19:44:56.387Z,11.64
2023-05-04T19:48:03.897Z,11.60
2023-05-04T19:51:14.343Z,11.59
2023-05-04T19:54:20.893Z,11.52
2023-05-04T19:57:32.205Z,11.51
2023-05-04T20:00:38.348Z,11.46
2023-05-04T20:03:48.083Z,11.41
2023-05-04T20:06:55.841Z,11.37
2023-05-04T20:10:02.843Z,11.32
2023-05-04T20:13:15.616Z,11.30
2023-05-04T20:16:24.434Z,11.23
2023-05-04T20:19:30.376Z,11.16
2023-05-04T20:22:38.915Z,11.10
2023-05-04T20:25:46.424Z,11.05
2023-05-04T20:28:56.438Z,11.02
2023-05-04T20:32:03.328Z,10.99
2023-05-04T20:35:12.075Z,10.94
2023-05-04T20:38:18.702Z,10.92
2023-05-04T20:41:25.781Z,10.91
2023-05-04T20:44:34.431Z,10.82
2023-05-04T20:47:43.053Z,10.82
2023-05-04T20:50:49.461Z,10.73
2023-05-04T20:53:57.336Z,10.73
2023-05-04T20:57:03.577Z,10.67
2023-05-04T21:00:15.660Z,10.61
2023-05-04T21:03:21.581Z,10.55
2023-05-04T21:06:28.348Z,10.49
2023-05-04T21:09:34.362Z,10.43
2023-05-04T21:12:41.009Z,10.37
2023-05-04T21:15:51.750Z,10.33
2023-05-04T21:18:58.381Z,10.32
2023-05-04T21:22:04.291Z,10.29
2023-05-04T21:25:12.181Z,10.26
2023-05-04T21:28:17.713Z,10.23
2023-05-04T21:31:27.072Z,10.23
2023-05-04T21:34:32.651Z,10.17
2023-05-04T21:37:39.249Z,10.20
2023-05-04T21:40:44.896Z,10.15
2023-05-04T21:43:51.941Z,10.13
2023-05-04T21:47:01.393Z,10.05
2023-05-04T21:50:09.241Z,10.08
2023-05-04T21:53:15.018Z,10.05
2023-05-04T21:56:21.411Z,10.02
2023-05-04T21:59:27.563Z,10.00
2023-05-04T22:02:36.792Z,9.95
2023-05-04T22:05:42.364Z,9.92
2023-05-04T22:08:48.824Z,9.84
2023-05-04T22:11:56.042Z,9.84
2023-05-04T22:15:02.391Z,9.83
2023-05-04T22:18:10.731Z,9.80
2023-05-04T22:21:17.031Z,9.77
2023-05-04T22:24:22.764Z,9.69
2023-05-04T22:27:29.307Z,9.69
2023-05-04T22:30:34.887Z,9.68
2023-05-04T22:33:44.092Z,9.68
2023-05-04T22:36:49.818Z,9.66
2023-05-04T22:39:56.185Z,9.67
2023-05-04T22:43:01.660Z,9.67
2023-05-04T22:46:08.400Z,9.68
2023-05-04T22:49:17.588Z,9.67
2023-05-04T22:52:23.943Z,9.65
2023-05-04T22:55:29.448Z,9.65
2023-05-04T22:58:35.809Z,9.64
2023-05-04T23:01:43.707Z,9.62
2023-05-04T23:04:53.381Z,9.58
2023-05-04T23:07:58.828Z,9.55
2023-05-04T23:11:05.387Z,9.53
2023-05-04T23:14:11.644Z,9.50
2023-05-04T23:17:18.224Z,9.43
2023-05-04T23:20:26.545Z,9.43
2023-05-04T23:23:32.851Z,9.39
2023-05-04T23:26:38.333Z,9.37
2023-05-04T23:29:44.944Z,9.34
2023-05-04T23:32:50.716Z,9.29
2023-05-04T23:36:02.931Z,9.25
2023-05-04T23:39:08.771Z,9.17
2023-05-04T23:42:15.150Z,9.10
2023-05-04T23:45:21.011Z,9.03
2023-05-04T23:48:27.333Z,8.95
2023-05-04T23:51:35.980Z,8.91
2023-05-04T23:54:42.286Z,8.85
2023-05-04T23:57:47.739Z,8.80
